createdAt,value
2019-05-25T00:01:14.078Z,12.10
2019-05-25T00:03:44.896Z,12.00
2019-05-25T00:06:15.721Z,12.10
2019-05-25T00:08:46.152Z,12.10
2019-05-25T00:11:16.611Z,12.10
2019-05-25T00:13:47.050Z,12.10
2019-05-25T00:16:17.435Z,12.10
2019-05-25T00:18:48.857Z,12.10
2019-05-25T00:21:19.281Z,12.10
2019-05-25T00:23:49.724Z,12.10
2019-05-25T00:26:20.194Z,12.00
2019-05-25T00:28:50.625Z,12.00
2019-05-25T00:31:21.091Z,12.10
2019-05-25T00:33:51.611Z,12.10
2019-05-25T00:36:23.308Z,12.20
2019-05-25T00:38:53.756Z,12.30
2019-05-25T00:41:24.182Z,12.40
2019-05-25T00:43:54.684Z,12.40
2019-05-25T00:46:25.080Z,12.40
2019-05-25T00:48:55.512Z,12.50
2019-05-25T00:51:25.917Z,12.50
2019-05-25T00:53:56.412Z,12.50
2019-05-25T00:56:26.800Z,12.60
2019-05-25T00:58:57.235Z,12.70
2019-05-25T01:01:27.622Z,12.70
2019-05-25T01:03:58.053Z,12.70
2019-05-25T01:06:28.450Z,12.60
2019-05-25T01:08:58.874Z,12.50
2019-05-25T01:11:29.277Z,12.60
2019-05-25T01:13:59.806Z,12.70
2019-05-25T01:16:30.250Z,12.70
2019-05-25T01:19:00.678Z,12.70
2019-05-25T01:21:31.183Z,12.70
2019-05-25T01:24:01.617Z,12.70
2019-05-25T01:26:32.008Z,12.70
2019-05-25T01:29:02.430Z,12.70
2019-05-25T01:31:32.828Z,12.60
2019-05-25T01:34:03.254Z,12.60
2019-05-25T01:36:33.649Z,12.70
2019-05-25T01:39:05.726Z,12.70
2019-05-25T01:41:37.126Z,12.70
2019-05-25T01:44:07.556Z,12.80
2019-05-25T01:46:38.912Z,12.80
2019-05-25T01:49:09.353Z,12.80
2019-05-25T01:51:39.812Z,12.90
2019-05-25T01:54:10.315Z,12.90
2019-05-25T01:56:40.713Z,12.80
2019-05-25T01:59:11.260Z,12.80
2019-05-25T02:01:41.655Z,12.90
2019-05-25T02:04:12.095Z,13.00
2019-05-25T02:06:42.549Z,13.00
2019-05-25T02:09:12.990Z,13.10
2019-05-25T02:11:43.385Z,13.20
2019-05-25T02:14:13.814Z,13.30
2019-05-25T02:16:44.212Z,13.30
2019-05-25T02:19:14.909Z,13.20
2019-05-25T02:21:45.728Z,13.10
2019-05-25T02:24:16.163Z,13.00
2019-05-25T02:26:48.390Z,12.80
2019-05-25T02:29:18.944Z,12.60
2019-05-25T02:31:49.340Z,12.50
2019-05-25T02:34:19.784Z,12.40
2019-05-25T02:36:50.462Z,12.40
2019-05-25T02:39:20.901Z,12.20
2019-05-25T02:41:51.305Z,12.10
2019-05-25T02:44:21.733Z,12.00
2019-05-25T02:46:53.221Z,11.90
2019-05-25T02:49:23.652Z,11.70
2019-05-25T02:51:54.088Z,11.60
2019-05-25T02:54:24.474Z,11.60
2019-05-25T02:56:54.911Z,11.50
2019-05-25T02:59:25.298Z,11.40
2019-05-25T03:01:55.875Z,11.30
2019-05-25T03:04:26.268Z,11.30
2019-05-25T03:06:56.842Z,11.40
2019-05-25T03:09:28.948Z,11.40
2019-05-25T03:12:00.548Z,11.50
2019-05-25T03:14:30.949Z,11.50
2019-05-25T03:17:01.382Z,11.60
2019-05-25T03:19:31.843Z,11.60
2019-05-25T03:22:02.275Z,11.60
2019-05-25T03:24:32.706Z,11.60
2019-05-25T03:27:03.145Z,11.80
2019-05-25T03:29:33.534Z,11.90
2019-05-25T03:32:03.967Z,12.10
2019-05-25T03:34:34.442Z,12.30
2019-05-25T03:37:04.958Z,12.50
2019-05-25T03:39:35.408Z,12.50
2019-05-25T03:42:05.916Z,12.60
2019-05-25T03:44:36.389Z,12.60
2019-05-25T03:47:06.891Z,12.70
2019-05-25T03:49:38.256Z,12.80
2019-05-25T03:52:08.690Z,13.00
2019-05-25T03:54:39.083Z,13.10
2019-05-25T03:57:09.514Z,13.30
2019-05-25T03:59:39.900Z,13.50
2019-05-25T04:02:10.331Z,13.60
2019-05-25T04:04:40.750Z,13.70
2019-05-25T04:07:11.186Z,13.90
2019-05-25T04:09:41.576Z,13.90
2019-05-25T04:12:12.021Z,14.10
2019-05-25T04:14:42.470Z,14.10
2019-05-25T04:17:13.950Z,14.20
2019-05-25T04:19:44.357Z,14.10
2019-05-25T04:22:14.796Z,14.20
2019-05-25T04:24:45.592Z,14.20
2019-05-25T04:27:16.037Z,14.20
2019-05-25T04:29:46.437Z,14.30
2019-05-25T04:32:16.868Z,14.40
2019-05-25T04:34:47.472Z,14.50
2019-05-25T04:37:17.919Z,14.60
2019-05-25T04:39:48.322Z,14.60
2019-05-25T04:42:18.757Z,14.60
2019-05-25T04:44:49.193Z,14.60
2019-05-25T04:47:27.003Z,14.70
2019-05-25T04:49:52.153Z,14.80
2019-05-25T04:52:22.601Z,15.00
2019-05-25T04:54:52.998Z,15.00
2019-05-25T04:57:23.804Z,15.10
2019-05-25T04:59:54.195Z,15.20
2019-05-25T05:02:24.641Z,15.30
2019-05-25T05:04:55.170Z,15.50
2019-05-25T05:07:25.614Z,15.60
2019-05-25T05:10:02.821Z,15.70
2019-05-25T05:12:28.141Z,15.80
2019-05-25T05:14:58.533Z,15.80
2019-05-25T05:17:28.972Z,15.80
2019-05-25T05:19:59.457Z,15.70
2019-05-25T05:22:29.948Z,15.70
2019-05-25T05:25:00.386Z,15.80
2019-05-25T05:27:30.814Z,15.90
2019-05-25T05:30:02.176Z,16.00
2019-05-25T05:32:32.693Z,15.90
2019-05-25T05:35:04.073Z,15.80
2019-05-25T05:37:34.965Z,15.70
2019-05-25T05:40:08.253Z,15.80
2019-05-25T05:42:39.977Z,15.90
2019-05-25T05:45:10.901Z,16.10
2019-05-25T05:47:43.974Z,16.30
2019-05-25T05:50:14.673Z,16.40
2019-05-25T05:52:49.162Z,16.50
2019-05-25T05:55:24.258Z,16.70
2019-05-25T05:57:54.697Z,17.10
2019-05-25T06:00:25.164Z,17.60
2019-05-25T06:02:55.594Z,17.90
2019-05-25T06:05:26.154Z,18.40
2019-05-25T06:07:56.590Z,18.70
2019-05-25T06:10:26.995Z,18.70
2019-05-25T06:12:57.430Z,19.20
2019-05-25T06:15:27.824Z,19.20
2019-05-25T06:17:59.226Z,19.50
2019-05-25T06:20:29.626Z,19.70
2019-05-25T06:23:03.017Z,19.80
2019-05-25T06:25:34.372Z,20.10
2019-05-25T06:28:04.893Z,19.90
2019-05-25T06:30:36.067Z,19.90
2019-05-25T06:33:08.661Z,20.20
2019-05-25T06:35:39.066Z,20.80
2019-05-25T06:38:09.558Z,21.60
2019-05-25T06:40:41.953Z,21.60
2019-05-25T06:43:12.391Z,21.30
2019-05-25T06:45:43.626Z,21.20
2019-05-25T06:48:15.878Z,21.20
2019-05-25T06:50:46.667Z,20.70
2019-05-25T06:53:17.116Z,20.60
2019-05-25T06:55:47.515Z,20.40
2019-05-25T06:58:18.159Z,20.10
2019-05-25T07:00:48.615Z,20.20
2019-05-25T07:03:19.061Z,20.30
2019-05-25T07:05:49.590Z,20.30
2019-05-25T07:08:20.023Z,20.60
2019-05-25T07:10:50.579Z,20.80
2019-05-25T07:13:21.009Z,21.00
2019-05-25T07:15:51.398Z,21.40
2019-05-25T07:18:21.834Z,21.40
2019-05-25T07:20:52.219Z,21.40
2019-05-25T07:23:22.653Z,21.50
2019-05-25T07:25:53.080Z,21.40
2019-05-25T07:28:23.647Z,21.30
2019-05-25T07:30:54.073Z,21.30
2019-05-25T07:33:24.477Z,21.30
2019-05-25T07:35:54.908Z,21.50
2019-05-25T07:38:25.302Z,21.60
2019-05-25T07:40:55.733Z,21.20
2019-05-25T07:43:26.122Z,21.00
2019-05-25T07:45:56.558Z,20.70
2019-05-25T07:48:26.942Z,20.80
2019-05-25T07:50:57.368Z,21.40
2019-05-25T07:53:27.783Z,21.70
2019-05-25T07:55:58.215Z,21.60
2019-05-25T07:58:28.606Z,21.80
2019-05-25T08:00:59.072Z,22.10
2019-05-25T08:03:29.604Z,21.80
2019-05-25T08:06:00.103Z,21.60
2019-05-25T08:08:32.055Z,21.70
2019-05-25T08:11:03.386Z,21.80
2019-05-25T08:13:33.786Z,21.30
2019-05-25T08:16:04.213Z,21.00
2019-05-25T08:18:34.604Z,21.20
2019-05-25T08:21:05.030Z,21.50
2019-05-25T08:23:35.457Z,21.80
2019-05-25T08:26:05.881Z,22.10
2019-05-25T08:28:36.277Z,22.00
2019-05-25T08:31:06.713Z,22.10
2019-05-25T08:33:37.159Z,22.00
2019-05-25T08:36:07.656Z,22.00
2019-05-25T08:38:38.052Z,22.30
2019-05-25T08:41:08.492Z,22.60
2019-05-25T08:43:38.874Z,22.50
2019-05-25T08:46:09.308Z,22.30
2019-05-25T08:48:39.767Z,22.70
2019-05-25T08:51:10.201Z,22.80
2019-05-25T08:53:42.248Z,23.00
2019-05-25T08:56:12.920Z,22.70
2019-05-25T08:58:48.512Z,22.60
2019-05-25T09:01:15.443Z,23.30
2019-05-25T09:03:46.038Z,23.30
2019-05-25T09:06:16.474Z,23.00
2019-05-25T09:08:46.856Z,22.90
2019-05-25T09:11:17.359Z,23.20
2019-05-25T09:13:47.769Z,23.60
2019-05-25T09:16:18.363Z,23.40
2019-05-25T09:18:48.762Z,23.20
2019-05-25T09:21:19.197Z,23.30
2019-05-25T09:23:49.620Z,23.00
2019-05-25T09:26:20.051Z,22.70
2019-05-25T09:29:03.599Z,22.50
2019-05-25T09:31:22.576Z,22.30
2019-05-25T09:33:52.974Z,22.50
2019-05-25T09:36:23.407Z,22.70
2019-05-25T09:38:54.768Z,23.10
2019-05-25T09:41:25.209Z,23.60
2019-05-25T09:43:55.668Z,23.40
2019-05-25T09:46:26.090Z,23.50
2019-05-25T09:48:56.478Z,23.70
2019-05-25T09:51:26.909Z,23.40
2019-05-25T09:53:57.299Z,23.40
2019-05-25T09:56:27.728Z,22.80
2019-05-25T09:58:58.122Z,22.50
2019-05-25T10:01:28.621Z,23.20
2019-05-25T10:03:59.005Z,23.80
2019-05-25T10:06:29.600Z,23.70
2019-05-25T10:08:59.986Z,24.00
2019-05-25T10:11:30.419Z,23.60
2019-05-25T10:14:00.810Z,23.90
2019-05-25T10:16:31.245Z,24.20
2019-05-25T10:19:01.628Z,24.70
2019-05-25T10:21:32.052Z,25.00
2019-05-25T10:24:02.484Z,24.60
2019-05-25T10:26:32.920Z,24.50
2019-05-25T10:29:03.304Z,24.10
2019-05-25T10:31:33.749Z,23.20
2019-05-25T10:34:04.344Z,22.80
2019-05-25T10:36:34.787Z,22.90
2019-05-25T10:39:08.447Z,22.80
2019-05-25T10:41:38.872Z,22.70
2019-05-25T10:44:09.252Z,22.60
2019-05-25T10:46:39.686Z,22.60
2019-05-25T10:49:11.835Z,22.80
2019-05-25T10:51:42.433Z,22.90
2019-05-25T10:54:12.860Z,22.70
2019-05-25T10:56:43.306Z,22.80
2019-05-25T10:59:13.707Z,22.70
2019-05-25T11:01:44.135Z,22.90
2019-05-25T11:04:14.542Z,22.30
2019-05-25T11:06:45.082Z,22.00
2019-05-25T11:09:17.698Z,22.00
2019-05-25T11:11:48.486Z,22.60
2019-05-25T11:14:18.870Z,23.30
2019-05-25T11:16:51.033Z,23.60
2019-05-25T11:19:24.141Z,23.60
2019-05-25T11:21:53.685Z,24.00
2019-05-25T11:24:24.177Z,24.10
2019-05-25T11:26:54.804Z,23.20
2019-05-25T11:29:25.313Z,22.70
2019-05-25T11:32:00.071Z,22.70
2019-05-25T11:34:27.831Z,22.90
2019-05-25T11:36:58.217Z,23.40
2019-05-25T11:39:28.655Z,23.70
2019-05-25T11:41:59.044Z,23.70
2019-05-25T11:44:29.486Z,23.50
2019-05-25T11:46:59.880Z,22.90
2019-05-25T11:49:30.311Z,22.70
2019-05-25T11:52:00.719Z,22.80
2019-05-25T11:54:31.206Z,22.70
2019-05-25T11:57:02.577Z,22.50
2019-05-25T11:59:32.998Z,22.80
2019-05-25T12:02:03.463Z,23.20
2019-05-25T12:04:33.977Z,23.50
2019-05-25T12:07:04.431Z,23.30
2019-05-25T12:09:34.870Z,23.80
2019-05-25T12:12:05.260Z,24.10
2019-05-25T12:14:35.694Z,24.60
2019-05-25T12:17:06.079Z,24.40
2019-05-25T12:19:36.502Z,24.10
2019-05-25T12:22:06.966Z,23.90
2019-05-25T12:24:38.354Z,24.10
2019-05-25T12:27:09.721Z,23.90
2019-05-25T12:29:40.154Z,22.90
2019-05-25T12:32:10.538Z,23.10
2019-05-25T12:34:41.109Z,23.40
2019-05-25T12:37:11.504Z,23.00
2019-05-25T12:39:41.995Z,23.30
2019-05-25T12:42:12.383Z,24.10
2019-05-25T12:44:42.888Z,24.20
2019-05-25T12:47:13.278Z,24.30
2019-05-25T12:49:50.453Z,23.80
2019-05-25T12:52:17.094Z,23.10
2019-05-25T12:54:47.526Z,22.70
2019-05-25T12:57:17.945Z,22.80
2019-05-25T12:59:48.629Z,23.10
2019-05-25T13:02:19.018Z,23.40
2019-05-25T13:04:49.468Z,23.40
2019-05-25T13:07:19.933Z,23.10
2019-05-25T13:09:50.365Z,22.80
2019-05-25T13:12:20.754Z,22.20
2019-05-25T13:14:51.200Z,22.10
2019-05-25T13:17:21.586Z,22.50
2019-05-25T13:19:52.024Z,22.70
2019-05-25T13:22:22.764Z,23.00
2019-05-25T13:24:53.249Z,23.10
2019-05-25T13:27:23.750Z,22.90
2019-05-25T13:29:54.179Z,22.80
2019-05-25T13:32:24.564Z,23.10
2019-05-25T13:34:54.996Z,23.10
2019-05-25T13:37:25.386Z,23.20
2019-05-25T13:39:55.834Z,23.20
2019-05-25T13:42:26.226Z,23.30
2019-05-25T13:44:56.672Z,23.10
2019-05-25T13:47:27.060Z,22.70
2019-05-25T13:49:57.497Z,22.30
2019-05-25T13:52:27.900Z,22.00
2019-05-25T13:54:58.340Z,21.80
2019-05-25T13:57:28.729Z,22.00
2019-05-25T13:59:59.161Z,22.00
2019-05-25T14:02:29.551Z,22.20
2019-05-25T14:04:59.989Z,22.20
2019-05-25T14:07:30.377Z,22.20
2019-05-25T14:10:00.897Z,22.70
2019-05-25T14:12:31.349Z,22.50
2019-05-25T14:15:01.833Z,22.10
2019-05-25T14:17:32.334Z,21.80
2019-05-25T14:20:03.442Z,21.70
2019-05-25T14:22:35.301Z,22.00
2019-05-25T14:25:08.111Z,22.40
2019-05-25T14:27:38.793Z,22.40
2019-05-25T14:30:09.859Z,22.10
2019-05-25T14:32:40.319Z,22.20
2019-05-25T14:35:10.888Z,22.00
2019-05-25T14:37:41.313Z,21.80
2019-05-25T14:40:12.893Z,21.60
2019-05-25T14:42:43.352Z,21.40
2019-05-25T14:45:14.520Z,21.50
2019-05-25T14:47:44.914Z,21.50
2019-05-25T14:50:15.787Z,21.80
2019-05-25T14:52:46.252Z,21.70
2019-05-25T14:55:16.908Z,21.80
2019-05-25T14:57:47.368Z,21.80
2019-05-25T15:00:19.154Z,21.90
2019-05-25T15:02:49.646Z,21.90
2019-05-25T15:05:20.036Z,21.50
2019-05-25T15:07:50.530Z,21.60
2019-05-25T15:10:22.008Z,22.00
2019-05-25T15:12:52.512Z,22.10
2019-05-25T15:15:22.909Z,22.00
2019-05-25T15:17:53.350Z,21.80
2019-05-25T15:20:23.816Z,21.40
2019-05-25T15:22:54.318Z,20.90
2019-05-25T15:25:24.709Z,20.80
2019-05-25T15:27:55.139Z,20.80
2019-05-25T15:30:25.725Z,20.80
2019-05-25T15:32:56.280Z,21.00
2019-05-25T15:35:26.678Z,21.10
2019-05-25T15:37:57.114Z,21.00
2019-05-25T15:40:27.507Z,20.80
2019-05-25T15:42:57.946Z,20.50
2019-05-25T15:45:28.358Z,20.50
2019-05-25T15:47:58.858Z,20.50
2019-05-25T15:50:29.554Z,20.50
2019-05-25T15:52:59.980Z,20.60
2019-05-25T15:55:30.372Z,20.60
2019-05-25T15:58:00.802Z,20.70
2019-05-25T16:00:49.060Z,20.70
2019-05-25T16:03:20.810Z,20.90
2019-05-25T16:05:52.078Z,21.10
2019-05-25T16:08:23.032Z,21.30
2019-05-25T16:10:53.458Z,21.10
2019-05-25T16:13:23.966Z,20.70
2019-05-25T16:15:54.355Z,20.30
2019-05-25T16:18:24.812Z,20.00
2019-05-25T16:20:55.200Z,20.00
2019-05-25T16:23:25.638Z,19.70
2019-05-25T16:25:56.154Z,19.50
2019-05-25T16:28:26.602Z,19.40
2019-05-25T16:30:56.996Z,19.40
2019-05-25T16:33:27.498Z,19.40
2019-05-25T16:35:58.157Z,19.20
2019-05-25T16:38:28.867Z,19.20
2019-05-25T16:40:59.262Z,19.00
2019-05-25T16:43:29.692Z,19.00
2019-05-25T16:46:00.077Z,18.90
2019-05-25T16:48:30.512Z,18.90
2019-05-25T16:51:00.981Z,18.90
2019-05-25T16:53:31.415Z,18.90
2019-05-25T16:56:01.808Z,19.00
2019-05-25T16:58:32.239Z,18.90
2019-05-25T17:01:02.654Z,18.90
2019-05-25T17:03:33.154Z,18.90
2019-05-25T17:06:03.547Z,18.70
2019-05-25T17:08:34.008Z,18.70
2019-05-25T17:11:04.410Z,18.60
2019-05-25T17:13:34.898Z,18.50
2019-05-25T17:16:05.363Z,18.40
2019-05-25T17:18:35.800Z,18.50
2019-05-25T17:21:06.188Z,18.30
2019-05-25T17:23:36.611Z,18.30
2019-05-25T17:26:07.211Z,18.20
2019-05-25T17:28:37.723Z,18.10
2019-05-25T17:31:08.107Z,17.90
2019-05-25T17:33:45.925Z,17.80
2019-05-25T17:36:13.039Z,17.80
2019-05-25T17:38:43.869Z,17.70
2019-05-25T17:41:14.398Z,17.60
2019-05-25T17:43:45.287Z,17.60
2019-05-25T17:46:15.680Z,17.70
2019-05-25T17:48:46.118Z,17.60
2019-05-25T17:51:16.513Z,17.50
2019-05-25T17:53:46.941Z,17.50
2019-05-25T17:56:17.342Z,17.40
2019-05-25T17:58:47.758Z,17.20
2019-05-25T18:01:18.150Z,17.00
2019-05-25T18:04:04.945Z,17.00
2019-05-25T18:06:20.676Z,16.90
2019-05-25T18:08:51.101Z,16.80
2019-05-25T18:11:21.563Z,16.80
2019-05-25T18:13:52.063Z,16.70
2019-05-25T18:16:22.520Z,16.70
2019-05-25T18:18:52.948Z,16.60
2019-05-25T18:21:23.337Z,16.50
2019-05-25T18:23:53.779Z,16.40
2019-05-25T18:26:24.206Z,16.30
2019-05-25T18:28:54.634Z,16.20
2019-05-25T18:31:25.029Z,16.20
2019-05-25T18:33:55.455Z,16.10
2019-05-25T18:36:25.922Z,16.00
2019-05-25T18:38:56.353Z,15.90
2019-05-25T18:41:26.741Z,15.90
2019-05-25T18:43:57.214Z,15.80
2019-05-25T18:46:27.686Z,15.60
2019-05-25T18:48:58.114Z,15.50
2019-05-25T18:51:28.513Z,15.40
2019-05-25T18:53:59.016Z,15.30
2019-05-25T18:56:30.452Z,15.40
2019-05-25T18:59:00.897Z,15.30
2019-05-25T19:01:31.389Z,15.20
2019-05-25T19:04:02.125Z,15.10
2019-05-25T19:06:33.038Z,15.10
2019-05-25T19:09:03.613Z,15.00
2019-05-25T19:11:35.914Z,14.90
2019-05-25T19:14:09.296Z,14.90
2019-05-25T19:16:40.666Z,14.80
2019-05-25T19:19:14.295Z,14.70
2019-05-25T19:21:44.704Z,14.70
2019-05-25T19:24:15.894Z,14.60
2019-05-25T19:26:48.267Z,14.50
2019-05-25T19:29:19.657Z,14.50
2019-05-25T19:31:53.408Z,14.40
2019-05-25T19:34:27.296Z,14.40
2019-05-25T19:37:03.518Z,14.30
2019-05-25T19:39:31.203Z,14.30
2019-05-25T19:42:01.686Z,14.20
2019-05-25T19:44:34.197Z,14.20
2019-05-25T19:47:05.629Z,14.20
2019-05-25T19:49:36.107Z,14.10
2019-05-25T19:52:06.596Z,14.10
2019-05-25T19:54:37.078Z,14.10
2019-05-25T19:57:07.847Z,14.00
2019-05-25T19:59:39.588Z,14.00
2019-05-25T20:02:10.142Z,14.00
2019-05-25T20:04:40.675Z,13.90
2019-05-25T20:07:11.573Z,13.90
2019-05-25T20:09:46.994Z,13.90
2019-05-25T20:12:19.614Z,13.80
2019-05-25T20:14:53.565Z,13.80
2019-05-25T20:17:24.175Z,13.80
2019-05-25T20:19:55.176Z,13.80
2019-05-25T20:22:25.648Z,13.80
2019-05-25T20:24:56.391Z,13.80
2019-05-25T20:27:26.864Z,13.70
2019-05-25T20:30:02.373Z,13.70
2019-05-25T20:32:31.214Z,13.70
2019-05-25T20:35:04.686Z,13.60
2019-05-25T20:37:37.211Z,13.60
2019-05-25T20:40:09.407Z,13.50
2019-05-25T20:42:40.180Z,13.40
2019-05-25T20:45:11.095Z,13.30
2019-05-25T20:47:41.622Z,13.20
2019-05-25T20:50:14.226Z,13.20
2019-05-25T20:52:46.739Z,13.10
2019-05-25T20:55:23.014Z,13.00
2019-05-25T20:57:53.518Z,13.00
2019-05-25T21:00:27.315Z,13.00
2019-05-25T21:03:05.905Z,12.90
2019-05-25T21:05:49.751Z,12.80
2019-05-25T21:08:14.378Z,12.80
2019-05-25T21:10:47.625Z,12.70
2019-05-25T21:13:22.715Z,12.60
2019-05-25T21:15:53.111Z,12.60
2019-05-25T21:18:26.088Z,12.50
2019-05-25T21:20:58.146Z,12.40
2019-05-25T21:23:28.580Z,12.40
2019-05-25T21:25:59.053Z,12.30
2019-05-25T21:28:34.332Z,12.20
2019-05-25T21:31:04.796Z,12.20
2019-05-25T21:33:38.576Z,12.00
2019-05-25T21:36:11.470Z,11.90
2019-05-25T21:38:41.914Z,11.90
2019-05-25T21:41:12.546Z,11.90
2019-05-25T21:43:43.065Z,11.90
2019-05-25T21:46:14.742Z,11.90
2019-05-25T21:48:45.246Z,11.80
2019-05-25T21:51:15.639Z,11.80
2019-05-25T21:53:46.110Z,11.80
2019-05-25T21:56:16.505Z,11.80
2019-05-25T21:58:46.951Z,11.80
2019-05-25T22:01:17.687Z,11.80
2019-05-25T22:03:48.209Z,11.90
2019-05-25T22:06:24.358Z,11.90
2019-05-25T22:08:50.731Z,11.90
2019-05-25T22:11:21.129Z,11.90
2019-05-25T22:13:53.140Z,11.90
2019-05-25T22:16:23.541Z,11.90
2019-05-25T22:18:53.984Z,12.00
2019-05-25T22:21:24.376Z,12.00
2019-05-25T22:23:54.830Z,11.90
2019-05-25T22:26:25.796Z,11.80
2019-05-25T22:28:56.289Z,11.80
2019-05-25T22:31:26.718Z,11.70
2019-05-25T22:33:59.361Z,11.50
2019-05-25T22:36:39.697Z,11.40
2019-05-25T22:39:01.394Z,11.30
2019-05-25T22:41:33.262Z,11.20
2019-05-25T22:44:04.776Z,11.00
2019-05-25T22:46:35.167Z,11.00
2019-05-25T22:49:05.608Z,10.80
2019-05-25T22:51:36.002Z,10.70
2019-05-25T22:54:06.432Z,10.60
2019-05-25T22:56:36.846Z,10.40
2019-05-25T22:59:07.347Z,10.30
2019-05-25T23:01:37.763Z,10.20
2019-05-25T23:04:08.275Z,10.10
2019-05-25T23:06:38.676Z,10.00
2019-05-25T23:09:09.112Z,10.00
2019-05-25T23:11:39.502Z,9.90
2019-05-25T23:14:10.120Z,9.80
2019-05-25T23:16:40.568Z,9.80
2019-05-25T23:19:10.989Z,9.80
2019-05-25T23:21:41.375Z,9.80
2019-05-25T23:24:11.813Z,9.80
2019-05-25T23:26:42.200Z,9.80
2019-05-25T23:29:12.666Z,9.70
2019-05-25T23:31:43.060Z,9.70
2019-05-25T23:34:13.490Z,9.60
2019-05-25T23:36:43.883Z,9.60
2019-05-25T23:39:14.314Z,9.50
2019-05-25T23:41:44.771Z,9.40
2019-05-25T23:44:15.259Z,9.40
2019-05-25T23:46:45.645Z,9.30
2019-05-25T23:49:16.074Z,9.30
2019-05-25T23:51:46.467Z,9.30
2019-05-25T23:54:16.900Z,9.30
2019-05-25T23:56:47.451Z,9.20
2019-05-25T23:59:17.883Z,9.20
